sensor_id;sensor_type;location;lat;lon;timestamp;pressure;altitude;pressure_sealevel;temperature;humidity
5283;BME280;15376;48.540;9.268;2023-07-24T00:00:02;96791.03;;;18.30;89.86
5283;BME280;15376;48.540;9.268;2023-07-24T00:02:27;96794.91;;;18.40;89.21
5283;BME280;15376;48.540;9.268;2023-07-24T00:04:53;96764.09;;;18.25;88.98
5283;BME280;15376;48.540;9.268;2023-07-24T00:07:19;96803.72;;;18.57;88.80
5283;BME280;15376;48.540;9.268;2023-07-24T00:09:44;96772.38;;;18.46;88.62
5283;BME280;15376;48.540;9.268;2023-07-24T00:12:09;96834.91;;;18.75;89.76
5283;BME280;15376;48.540;9.268;2023-07-24T00:14:35;96788.97;;;18.38;92.12
5283;BME280;15376;48.540;9.268;2023-07-24T00:17:00;96819.97;;;18.45;91.29
5283;BME280;15376;48.540;9.268;2023-07-24T00:19:25;96782.34;;;18.23;91.42
5283;BME280;15376;48.540;9.268;2023-07-24T00:21:51;96812.41;;;18.42;91.31
5283;BME280;15376;48.540;9.268;2023-07-24T00:24:16;96804.47;;;18.30;90.54
5283;BME280;15376;48.540;9.268;2023-07-24T00:26:41;96805.31;;;18.14;90.58
5283;BME280;15376;48.540;9.268;2023-07-24T00:29:07;96803.63;;;18.08;90.74
5283;BME280;15376;48.540;9.268;2023-07-24T00:31:32;96815.75;;;18.11;90.18
5283;BME280;15376;48.540;9.268;2023-07-24T00:33:57;96849.03;;;18.26;89.07
5283;BME280;15376;48.540;9.268;2023-07-24T00:36:25;96815.75;;;18.11;89.35
5283;BME280;15376;48.540;9.268;2023-07-24T00:38:51;96788.84;;;17.89;89.90
5283;BME280;15376;48.540;9.268;2023-07-24T00:41:16;96848.00;;;18.11;89.92
5283;BME280;15376;48.540;9.268;2023-07-24T00:43:41;96774.53;;;17.66;91.06
5283;BME280;15376;48.540;9.268;2023-07-24T00:46:07;96828.78;;;18.02;90.94
5283;BME280;15376;48.540;9.268;2023-07-24T00:48:32;96828.72;;;17.97;90.81
5283;BME280;15376;48.540;9.268;2023-07-24T00:50:57;96814.06;;;17.88;91.04
5283;BME280;15376;48.540;9.268;2023-07-24T00:53:23;96803.75;;;17.80;92.39
5283;BME280;15376;48.540;9.268;2023-07-24T00:55:48;96778.66;;;17.57;93.46
5283;BME280;15376;48.540;9.268;2023-07-24T00:58:16;96780.63;;;17.45;94.63
5283;BME280;15376;48.540;9.268;2023-07-24T01:00:42;96812.97;;;17.39;97.39
5283;BME280;15376;48.540;9.268;2023-07-24T01:03:07;96811.09;;;17.39;97.26
5283;BME280;15376;48.540;9.268;2023-07-24T01:05:33;96774.66;;;17.26;98.31
5283;BME280;15376;48.540;9.268;2023-07-24T01:07:58;96791.66;;;17.32;99.16
5283;BME280;15376;48.540;9.268;2023-07-24T01:10:24;96797.19;;;17.42;97.95
5283;BME280;15376;48.540;9.268;2023-07-24T01:15:24;96761.72;;;17.23;98.52
5283;BME280;15376;48.540;9.268;2023-07-24T01:18:00;96756.44;;;17.12;98.32
5283;BME280;15376;48.540;9.268;2023-07-24T01:20:28;96763.09;;;17.26;99.55
5283;BME280;15376;48.540;9.268;2023-07-24T01:23:01;96753.44;;;17.25;99.83
5283;BME280;15376;48.540;9.268;2023-07-24T01:25:35;96752.94;;;17.28;99.13
5283;BME280;15376;48.540;9.268;2023-07-24T01:28:01;96772.78;;;17.27;98.99
5283;BME280;15376;48.540;9.268;2023-07-24T01:30:26;96758.56;;;17.10;99.82
5283;BME280;15376;48.540;9.268;2023-07-24T01:32:51;96750.03;;;16.84;100.00
5283;BME280;15376;48.540;9.268;2023-07-24T01:35:17;96733.53;;;16.76;100.00
5283;BME280;15376;48.540;9.268;2023-07-24T01:37:43;96775.84;;;17.02;100.00
5283;BME280;15376;48.540;9.268;2023-07-24T01:40:10;96723.47;;;16.83;100.00
5283;BME280;15376;48.540;9.268;2023-07-24T01:42:36;96771.56;;;17.18;99.91
5283;BME280;15376;48.540;9.268;2023-07-24T01:45:03;96757.69;;;16.92;100.00
5283;BME280;15376;48.540;9.268;2023-07-24T01:47:28;96714.53;;;16.77;100.00
5283;BME280;15376;48.540;9.268;2023-07-24T01:49:55;96755.63;;;17.11;100.00
5283;BME280;15376;48.540;9.268;2023-07-24T01:52:20;96735.56;;;17.14;100.00
5283;BME280;15376;48.540;9.268;2023-07-24T01:54:46;96741.00;;;17.19;100.00
5283;BME280;15376;48.540;9.268;2023-07-24T01:57:11;96740.66;;;17.32;100.00
5283;BME280;15376;48.540;9.268;2023-07-24T01:59:36;96750.69;;;17.37;100.00
5283;BME280;15376;48.540;9.268;2023-07-24T02:02:02;96707.50;;;17.05;99.35
5283;BME280;15376;48.540;9.268;2023-07-24T02:04:27;96752.47;;;17.14;100.00
5283;BME280;15376;48.540;9.268;2023-07-24T02:06:52;96741.22;;;17.00;100.00
5283;BME280;15376;48.540;9.268;2023-07-24T02:09:18;96747.06;;;16.97;100.00
5283;BME280;15376;48.540;9.268;2023-07-24T02:11:44;96702.09;;;16.59;100.00
5283;BME280;15376;48.540;9.268;2023-07-24T02:14:11;96702.53;;;16.40;100.00
5283;BME280;15376;48.540;9.268;2023-07-24T02:16:36;96695.06;;;16.42;100.00
5283;BME280;15376;48.540;9.268;2023-07-24T02:19:02;96714.47;;;16.60;100.00
5283;BME280;15376;48.540;9.268;2023-07-24T02:21:27;96719.75;;;16.44;100.00
5283;BME280;15376;48.540;9.268;2023-07-24T02:23:52;96720.53;;;16.27;100.00
5283;BME280;15376;48.540;9.268;2023-07-24T02:26:18;96699.81;;;16.23;100.00
5283;BME280;15376;48.540;9.268;2023-07-24T02:28:43;96699.66;;;16.29;100.00
5283;BME280;15376;48.540;9.268;2023-07-24T02:31:09;96673.94;;;16.28;100.00
5283;BME280;15376;48.540;9.268;2023-07-24T02:33:34;96675.25;;;16.43;100.00
5283;BME280;15376;48.540;9.268;2023-07-24T02:36:00;96689.50;;;16.60;100.00
5283;BME280;15376;48.540;9.268;2023-07-24T02:38:26;96684.75;;;16.33;100.00
5283;BME280;15376;48.540;9.268;2023-07-24T02:40:51;96698.50;;;16.54;100.00
5283;BME280;15376;48.540;9.268;2023-07-24T02:43:16;96674.13;;;16.39;100.00
5283;BME280;15376;48.540;9.268;2023-07-24T02:45:42;96668.59;;;16.17;100.00
5283;BME280;15376;48.540;9.268;2023-07-24T02:48:07;96678.94;;;16.25;100.00
5283;BME280;15376;48.540;9.268;2023-07-24T02:50:33;96692.91;;;16.27;100.00
5283;BME280;15376;48.540;9.268;2023-07-24T02:52:58;96673.19;;;16.05;100.00
5283;BME280;15376;48.540;9.268;2023-07-24T02:55:24;96682.50;;;16.02;100.00
5283;BME280;15376;48.540;9.268;2023-07-24T02:57:50;96662.47;;;16.05;100.00
5283;BME280;15376;48.540;9.268;2023-07-24T03:00:15;96647.22;;;16.05;100.00
5283;BME280;15376;48.540;9.268;2023-07-24T03:02:40;96673.34;;;15.98;100.00
5283;BME280;15376;48.540;9.268;2023-07-24T03:05:06;96654.16;;;15.78;100.00
5283;BME280;15376;48.540;9.268;2023-07-24T03:07:32;96643.09;;;15.86;100.00
5283;BME280;15376;48.540;9.268;2023-07-24T03:09:57;96633.31;;;15.80;100.00
5283;BME280;15376;48.540;9.268;2023-07-24T03:12:23;96630.41;;;15.81;100.00
5283;BME280;15376;48.540;9.268;2023-07-24T03:14:48;96676.78;;;16.10;100.00
5283;BME280;15376;48.540;9.268;2023-07-24T03:17:13;96645.16;;;15.95;100.00
5283;BME280;15376;48.540;9.268;2023-07-24T03:19:40;96673.81;;;16.23;100.00
5283;BME280;15376;48.540;9.268;2023-07-24T03:22:05;96619.34;;;15.89;100.00
5283;BME280;15376;48.540;9.268;2023-07-24T03:24:31;96645.63;;;15.92;100.00
5283;BME280;15376;48.540;9.268;2023-07-24T03:26:56;96642.41;;;15.79;100.00
5283;BME280;15376;48.540;9.268;2023-07-24T03:29:21;96668.16;;;16.08;100.00
5283;BME280;15376;48.540;9.268;2023-07-24T03:31:47;96671.38;;;16.22;100.00
5283;BME280;15376;48.540;9.268;2023-07-24T03:34:12;96676.78;;;16.10;100.00
5283;BME280;15376;48.540;9.268;2023-07-24T03:36:37;96650.88;;;15.87;100.00
5283;BME280;15376;48.540;9.268;2023-07-24T03:39:06;96687.50;;;16.10;100.00
5283;BME280;15376;48.540;9.268;2023-07-24T03:41:32;96672.22;;;16.11;100.00
5283;BME280;15376;48.540;9.268;2023-07-24T03:43:57;96672.84;;;16.01;100.00
5283;BME280;15376;48.540;9.268;2023-07-24T03:46:22;96686.81;;;16.03;100.00
5283;BME280;15376;48.540;9.268;2023-07-24T03:48:48;96681.25;;;15.93;100.00
5283;BME280;15376;48.540;9.268;2023-07-24T03:51:15;96651.81;;;15.93;100.00
5283;BME280;15376;48.540;9.268;2023-07-24T03:53:41;96670.00;;;16.19;100.00
5283;BME280;15376;48.540;9.268;2023-07-24T03:56:06;96660.09;;;16.20;100.00
5283;BME280;15376;48.540;9.268;2023-07-24T03:58:31;96619.91;;;15.91;100.00
5283;BME280;15376;48.540;9.268;2023-07-24T04:00:57;96544.63;;;15.36;100.00
5283;BME280;15376;48.540;9.268;2023-07-24T04:03:22;96606.47;;;15.63;100.00
5283;BME280;15376;48.540;9.268;2023-07-24T04:05:47;96593.66;;;15.65;100.00
5283;BME280;15376;48.540;9.268;2023-07-24T04:08:13;96614.09;;;15.94;100.00
5283;BME280;15376;48.540;9.268;2023-07-24T04:10:38;96637.03;;;16.19;100.00
5283;BME280;15376;48.540;9.268;2023-07-24T04:13:03;96623.19;;;16.10;100.00
5283;BME280;15376;48.540;9.268;2023-07-24T04:15:29;96647.50;;;16.20;100.00
5283;BME280;15376;48.540;9.268;2023-07-24T04:17:54;96648.94;;;16.40;100.00
5283;BME280;15376;48.540;9.268;2023-07-24T04:20:19;96621.59;;;16.38;100.00
5283;BME280;15376;48.540;9.268;2023-07-24T04:22:45;96630.88;;;16.63;100.00
5283;BME280;15376;48.540;9.268;2023-07-24T04:25:10;96585.22;;;16.58;100.00
5283;BME280;15376;48.540;9.268;2023-07-24T04:27:35;96621.91;;;17.03;100.00
5283;BME280;15376;48.540;9.268;2023-07-24T04:30:01;96627.09;;;17.10;100.00
5283;BME280;15376;48.540;9.268;2023-07-24T04:32:27;96627.31;;;17.25;100.00
5283;BME280;15376;48.540;9.268;2023-07-24T04:34:52;96611.28;;;17.30;100.00
5283;BME280;15376;48.540;9.268;2023-07-24T04:37:18;96586.56;;;17.28;100.00
5283;BME280;15376;48.540;9.268;2023-07-24T04:39:43;96579.66;;;17.32;100.00
5283;BME280;15376;48.540;9.268;2023-07-24T04:42:08;96618.19;;;17.64;100.00
5283;BME280;15376;48.540;9.268;2023-07-24T04:44:34;96604.97;;;17.58;100.00
5283;BME280;15376;48.540;9.268;2023-07-24T04:46:59;96625.03;;;17.72;100.00
5283;BME280;15376;48.540;9.268;2023-07-24T04:49:28;96580.59;;;17.43;100.00
5283;BME280;15376;48.540;9.268;2023-07-24T04:51:54;96612.41;;;17.73;100.00
5283;BME280;15376;48.540;9.268;2023-07-24T04:54:19;96600.63;;;17.74;100.00
5283;BME280;15376;48.540;9.268;2023-07-24T04:56:44;96598.00;;;17.79;100.00
5283;BME280;15376;48.540;9.268;2023-07-24T04:59:10;96629.28;;;18.12;100.00
5283;BME280;15376;48.540;9.268;2023-07-24T05:01:35;96622.38;;;18.21;100.00
5283;BME280;15376;48.540;9.268;2023-07-24T05:04:00;96607.53;;;18.13;100.00
5283;BME280;15376;48.540;9.268;2023-07-24T05:06:26;96569.63;;;17.88;99.83
5283;BME280;15376;48.540;9.268;2023-07-24T05:08:54;96599.78;;;18.17;99.36
5283;BME280;15376;48.540;9.268;2023-07-24T05:11:20;96636.69;;;18.53;98.13
5283;BME280;15376;48.540;9.268;2023-07-24T05:13:45;96574.44;;;18.35;97.50
5283;BME280;15376;48.540;9.268;2023-07-24T05:16:10;96607.81;;;18.65;96.90
5283;BME280;15376;48.540;9.268;2023-07-24T05:18:36;96621.09;;;18.77;97.07
5283;BME280;15376;48.540;9.268;2023-07-24T05:21:01;96632.72;;;18.88;96.45
5283;BME280;15376;48.540;9.268;2023-07-24T05:23:27;96629.31;;;18.97;95.91
5283;BME280;15376;48.540;9.268;2023-07-24T05:25:59;96632.41;;;19.11;94.44
5283;BME280;15376;48.540;9.268;2023-07-24T05:28:29;96643.53;;;19.30;93.61
5283;BME280;15376;48.540;9.268;2023-07-24T05:30:54;96617.66;;;19.19;93.66
5283;BME280;15376;48.540;9.268;2023-07-24T05:33:21;96661.66;;;19.40;92.30
5283;BME280;15376;48.540;9.268;2023-07-24T05:35:48;96671.63;;;19.39;91.55
5283;BME280;15376;48.540;9.268;2023-07-24T05:38:13;96671.66;;;19.44;90.64
5283;BME280;15376;48.540;9.268;2023-07-24T05:40:39;96684.06;;;19.45;90.60
5283;BME280;15376;48.540;9.268;2023-07-24T05:43:04;96664.44;;;19.13;90.90
5283;BME280;15376;48.540;9.268;2023-07-24T05:45:29;96694.03;;;19.13;91.64
5283;BME280;15376;48.540;9.268;2023-07-24T05:47:55;96652.84;;;18.80;92.42
5283;BME280;15376;48.540;9.268;2023-07-24T05:50:20;96681.97;;;18.88;93.55
5283;BME280;15376;48.540;9.268;2023-07-24T05:52:45;96658.66;;;18.67;94.08
5283;BME280;15376;48.540;9.268;2023-07-24T05:55:11;96693.31;;;18.63;95.58
5283;BME280;15376;48.540;9.268;2023-07-24T05:57:36;96678.28;;;18.46;96.34
5283;BME280;15376;48.540;9.268;2023-07-24T06:00:03;96710.97;;;18.59;97.25
5283;BME280;15376;48.540;9.268;2023-07-24T06:02:29;96681.44;;;18.38;97.00
5283;BME280;15376;48.540;9.268;2023-07-24T06:04:54;96686.00;;;18.37;96.95
5283;BME280;15376;48.540;9.268;2023-07-24T06:07:19;96713.56;;;18.49;97.06
5283;BME280;15376;48.540;9.268;2023-07-24T06:09:45;96693.28;;;18.42;97.03
5283;BME280;15376;48.540;9.268;2023-07-24T06:12:10;96631.84;;;18.02;96.65
5283;BME280;15376;48.540;9.268;2023-07-24T06:14:35;96694.22;;;18.52;96.83
5283;BME280;15376;48.540;9.268;2023-07-24T06:17:01;96665.41;;;18.48;96.18
5283;BME280;15376;48.540;9.268;2023-07-24T06:19:26;96674.22;;;18.65;95.76
5283;BME280;15376;48.540;9.268;2023-07-24T06:21:51;96673.41;;;18.64;97.17
5283;BME280;15376;48.540;9.268;2023-07-24T06:24:16;96666.09;;;18.60;96.55
5283;BME280;15376;48.540;9.268;2023-07-24T06:26:43;96651.34;;;18.62;96.58
5283;BME280;15376;48.540;9.268;2023-07-24T06:29:08;96647.69;;;18.74;96.42
5283;BME280;15376;48.540;9.268;2023-07-24T06:31:33;96622.00;;;18.61;96.45
5283;BME280;15376;48.540;9.268;2023-07-24T06:33:59;96578.31;;;18.49;95.37
5283;BME280;15376;48.540;9.268;2023-07-24T06:36:24;96630.34;;;18.91;95.42
5283;BME280;15376;48.540;9.268;2023-07-24T06:38:49;96632.81;;;18.98;95.01
5283;BME280;15376;48.540;9.268;2023-07-24T06:41:15;96631.59;;;19.11;94.04
5283;BME280;15376;48.540;9.268;2023-07-24T06:43:45;96649.41;;;19.22;93.88
5283;BME280;15376;48.540;9.268;2023-07-24T06:46:10;96626.53;;;19.24;93.81
5283;BME280;15376;48.540;9.268;2023-07-24T06:48:36;96618.44;;;19.19;94.67
5283;BME280;15376;48.540;9.268;2023-07-24T06:51:01;96643.38;;;19.42;93.48
5283;BME280;15376;48.540;9.268;2023-07-24T06:53:26;96630.16;;;19.40;93.16
5283;BME280;15376;48.540;9.268;2023-07-24T06:55:52;96606.47;;;19.42;92.25
5283;BME280;15376;48.540;9.268;2023-07-24T06:58:17;96641.72;;;19.78;92.48
5283;BME280;15376;48.540;9.268;2023-07-24T07:00:43;96607.72;;;19.72;91.35
5283;BME280;15376;48.540;9.268;2023-07-24T07:03:08;96605.09;;;19.82;90.70
5283;BME280;15376;48.540;9.268;2023-07-24T07:05:33;96653.19;;;20.15;90.49
5283;BME280;15376;48.540;9.268;2023-07-24T07:07:59;96652.38;;;20.15;89.26
5283;BME280;15376;48.540;9.268;2023-07-24T07:10:24;96655.38;;;20.23;88.46
5283;BME280;15376;48.540;9.268;2023-07-24T07:12:49;96644.91;;;20.37;88.10
5283;BME280;15376;48.540;9.268;2023-07-24T07:15:15;96684.06;;;20.55;86.77
5283;BME280;15376;48.540;9.268;2023-07-24T07:17:41;96662.22;;;20.51;86.50
5283;BME280;15376;48.540;9.268;2023-07-24T07:20:07;96678.69;;;20.55;86.18
5283;BME280;15376;48.540;9.268;2023-07-24T07:22:32;96676.81;;;20.66;87.03
5283;BME280;15376;48.540;9.268;2023-07-24T07:24:57;96681.97;;;20.82;86.71
5283;BME280;15376;48.540;9.268;2023-07-24T07:27:23;96683.06;;;20.86;86.42
5283;BME280;15376;48.540;9.268;2023-07-24T07:29:48;96690.66;;;21.10;87.15
5283;BME280;15376;48.540;9.268;2023-07-24T07:32:13;96646.09;;;21.07;85.74
5283;BME280;15376;48.540;9.268;2023-07-24T07:34:39;96698.19;;;21.63;84.78
5283;BME280;15376;48.540;9.268;2023-07-24T07:37:07;96700.31;;;21.92;84.15
5283;BME280;15376;48.540;9.268;2023-07-24T07:39:32;96696.97;;;22.31;84.13
5283;BME280;15376;48.540;9.268;2023-07-24T07:41:58;96691.28;;;22.81;81.22
5283;BME280;15376;48.540;9.268;2023-07-24T07:44:23;96675.44;;;23.04;79.22
5283;BME280;15376;48.540;9.268;2023-07-24T07:46:48;96704.72;;;23.36;77.57
5283;BME280;15376;48.540;9.268;2023-07-24T07:49:14;96688.66;;;23.44;78.37
5283;BME280;15376;48.540;9.268;2023-07-24T07:51:39;96674.06;;;23.40;77.84
5283;BME280;15376;48.540;9.268;2023-07-24T07:54:04;96711.94;;;23.50;79.15
5283;BME280;15376;48.540;9.268;2023-07-24T07:56:30;96674.81;;;23.17;78.95
5283;BME280;15376;48.540;9.268;2023-07-24T07:58:55;96721.34;;;23.24;79.98
5283;BME280;15376;48.540;9.268;2023-07-24T08:01:20;96671.78;;;22.84;80.96
5283;BME280;15376;48.540;9.268;2023-07-24T08:03:46;96679.44;;;22.72;82.46
5283;BME280;15376;48.540;9.268;2023-07-24T08:06:11;96695.19;;;22.60;82.42
5283;BME280;15376;48.540;9.268;2023-07-24T08:08:37;96705.19;;;22.65;84.77
5283;BME280;15376;48.540;9.268;2023-07-24T08:11:06;96724.41;;;22.63;84.04
5283;BME280;15376;48.540;9.268;2023-07-24T08:13:32;96673.09;;;22.43;83.29
5283;BME280;15376;48.540;9.268;2023-07-24T08:15:57;96695.44;;;22.69;83.47
5283;BME280;15376;48.540;9.268;2023-07-24T08:18:24;96678.09;;;22.70;83.14
5283;BME280;15376;48.540;9.268;2023-07-24T08:20:50;96681.50;;;22.90;79.50
5283;BME280;15376;48.540;9.268;2023-07-24T08:23:15;96689.97;;;23.18;78.24
5283;BME280;15376;48.540;9.268;2023-07-24T08:25:50;96692.06;;;23.26;76.56
5283;BME280;15376;48.540;9.268;2023-07-24T08:28:16;96701.16;;;23.40;75.91
5283;BME280;15376;48.540;9.268;2023-07-24T08:30:41;96650.91;;;22.90;77.68
5283;BME280;15376;48.540;9.268;2023-07-24T08:33:06;96683.56;;;23.04;77.23
5283;BME280;15376;48.540;9.268;2023-07-24T08:35:32;96694.78;;;22.87;78.30
5283;BME280;15376;48.540;9.268;2023-07-24T08:37:57;96672.94;;;22.73;78.80
5283;BME280;15376;48.540;9.268;2023-07-24T08:40:23;96670.22;;;22.73;79.13
5283;BME280;15376;48.540;9.268;2023-07-24T08:42:51;96658.31;;;22.74;79.13
5283;BME280;15376;48.540;9.268;2023-07-24T08:45:17;96663.19;;;22.72;78.20
5283;BME280;15376;48.540;9.268;2023-07-24T08:47:44;96652.41;;;22.62;78.72
5283;BME280;15376;48.540;9.268;2023-07-24T08:50:09;96653.22;;;22.62;78.63
5283;BME280;15376;48.540;9.268;2023-07-24T08:52:37;96646.00;;;22.48;78.90
5283;BME280;15376;48.540;9.268;2023-07-24T08:55:05;96651.41;;;22.48;81.62
5283;BME280;15376;48.540;9.268;2023-07-24T08:57:30;96618.03;;;22.18;84.92
5283;BME280;15376;48.540;9.268;2023-07-24T08:59:55;96601.81;;;22.13;86.35
5283;BME280;15376;48.540;9.268;2023-07-24T09:02:21;96610.50;;;22.05;90.75
5283;BME280;15376;48.540;9.268;2023-07-24T09:04:46;96592.72;;;21.89;97.21
5283;BME280;15376;48.540;9.268;2023-07-24T09:07:12;96631.31;;;22.00;98.45
5283;BME280;15376;48.540;9.268;2023-07-24T09:09:39;96631.06;;;22.06;97.61
5283;BME280;15376;48.540;9.268;2023-07-24T09:12:05;96551.69;;;21.72;98.02
5283;BME280;15376;48.540;9.268;2023-07-24T09:14:30;96621.19;;;22.36;99.57
5283;BME280;15376;48.540;9.268;2023-07-24T09:17:06;96621.06;;;22.56;99.60
5283;BME280;15376;48.540;9.268;2023-07-24T09:19:33;96635.63;;;22.65;99.29
5283;BME280;15376;48.540;9.268;2023-07-24T09:24:34;96633.44;;;22.67;100.00
5283;BME280;15376;48.540;9.268;2023-07-24T09:26:59;96601.84;;;22.57;100.00
5283;BME280;15376;48.540;9.268;2023-07-24T09:29:31;96621.56;;;22.63;100.00
5283;BME280;15376;48.540;9.268;2023-07-24T09:31:56;96618.34;;;22.56;100.00
5283;BME280;15376;48.540;9.268;2023-07-24T09:34:21;96561.78;;;22.15;100.00
5283;BME280;15376;48.540;9.268;2023-07-24T09:36:47;96605.00;;;22.31;100.00
5283;BME280;15376;48.540;9.268;2023-07-24T09:39:12;96596.94;;;22.20;100.00
5283;BME280;15376;48.540;9.268;2023-07-24T09:41:39;96595.91;;;22.06;100.00
5283;BME280;15376;48.540;9.268;2023-07-24T09:44:05;96601.34;;;21.96;100.00
5283;BME280;15376;48.540;9.268;2023-07-24T09:46:30;96563.34;;;21.62;100.00
5283;BME280;15376;48.540;9.268;2023-07-24T09:48:57;96611.09;;;21.92;100.00
5283;BME280;15376;48.540;9.268;2023-07-24T09:51:23;96584.66;;;21.79;100.00
5283;BME280;15376;48.540;9.268;2023-07-24T09:54:06;96583.03;;;21.78;100.00
5283;BME280;15376;48.540;9.268;2023-07-24T09:56:33;96616.53;;;21.87;100.00
5283;BME280;15376;48.540;9.268;2023-07-24T09:59:00;96644.94;;;21.79;100.00
5283;BME280;15376;48.540;9.268;2023-07-24T10:01:28;96647.38;;;21.71;100.00
5283;BME280;15376;48.540;9.268;2023-07-24T10:03:55;96636.91;;;21.54;100.00
5283;BME280;15376;48.540;9.268;2023-07-24T10:06:20;96642.03;;;21.40;100.00
5283;BME280;15376;48.540;9.268;2023-07-24T10:08:46;96645.81;;;21.39;100.00
5283;BME280;15376;48.540;9.268;2023-07-24T10:11:14;96671.22;;;21.48;100.00
5283;BME280;15376;48.540;9.268;2023-07-24T10:13:42;96681.22;;;21.48;100.00
5283;BME280;15376;48.540;9.268;2023-07-24T10:16:08;96652.03;;;21.24;100.00
5283;BME280;15376;48.540;9.268;2023-07-24T10:18:35;96678.78;;;21.11;100.00
5283;BME280;15376;48.540;9.268;2023-07-24T10:21:03;96706.31;;;21.08;100.00
5283;BME280;15376;48.540;9.268;2023-07-24T10:23:29;96672.78;;;20.68;100.00
5283;BME280;15376;48.540;9.268;2023-07-24T10:25:54;96683.78;;;20.51;100.00
5283;BME280;15376;48.540;9.268;2023-07-24T10:28:33;96681.25;;;20.24;100.00
5283;BME280;15376;48.540;9.268;2023-07-24T10:31:00;96711.78;;;20.35;100.00
5283;BME280;15376;48.540;9.268;2023-07-24T10:33:29;96690.88;;;20.05;100.00
5283;BME280;15376;48.540;9.268;2023-07-24T10:36:05;96711.75;;;19.78;100.00
5283;BME280;15376;48.540;9.268;2023-07-24T10:38:39;96784.09;;;19.96;100.00
5283;BME280;15376;48.540;9.268;2023-07-24T10:41:05;96755.34;;;19.70;100.00
5283;BME280;15376;48.540;9.268;2023-07-24T10:43:45;96786.09;;;19.74;100.00
5283;BME280;15376;48.540;9.268;2023-07-24T10:46:11;96796.00;;;19.68;100.00
5283;BME280;15376;48.540;9.268;2023-07-24T10:48:38;96772.88;;;19.40;100.00
5283;BME280;15376;48.540;9.268;2023-07-24T10:51:07;96798.84;;;19.51;100.00
5283;BME280;15376;48.540;9.268;2023-07-24T10:53:37;96767.34;;;19.25;100.00
5283;BME280;15376;48.540;9.268;2023-07-24T10:56:06;96795.84;;;19.21;100.00
5283;BME280;15376;48.540;9.268;2023-07-24T10:58:32;96754.16;;;18.96;100.00
5283;BME280;15376;48.540;9.268;2023-07-24T11:00:57;96800.75;;;19.29;100.00
5283;BME280;15376;48.540;9.268;2023-07-24T11:03:24;96811.47;;;19.24;100.00
5283;BME280;15376;48.540;9.268;2023-07-24T11:05:50;96810.16;;;18.99;100.00
5283;BME280;15376;48.540;9.268;2023-07-24T11:08:20;96802.66;;;19.02;100.00
5283;BME280;15376;48.540;9.268;2023-07-24T11:10:46;96815.66;;;19.10;100.00
5283;BME280;15376;48.540;9.268;2023-07-24T11:13:12;96816.06;;;18.96;100.00
5283;BME280;15376;48.540;9.268;2023-07-24T11:15:38;96812.19;;;18.87;100.00
5283;BME280;15376;48.540;9.268;2023-07-24T11:18:04;96810.47;;;18.76;100.00
5283;BME280;15376;48.540;9.268;2023-07-24T11:20:29;96772.78;;;18.54;100.00
5283;BME280;15376;48.540;9.268;2023-07-24T11:22:57;96798.88;;;18.76;100.00
5283;BME280;15376;48.540;9.268;2023-07-24T11:25:23;96796.94;;;18.71;100.00
5283;BME280;15376;48.540;9.268;2023-07-24T11:27:49;96716.84;;;18.29;100.00
5283;BME280;15376;48.540;9.268;2023-07-24T11:30:19;96739.97;;;18.74;100.00
5283;BME280;15376;48.540;9.268;2023-07-24T11:32:46;96709.78;;;18.99;100.00
5283;BME280;15376;48.540;9.268;2023-07-24T11:35:11;96631.41;;;18.90;100.00
5283;BME280;15376;48.540;9.268;2023-07-24T11:37:37;96604.44;;;19.17;100.00
5283;BME280;15376;48.540;9.268;2023-07-24T11:40:04;96614.78;;;19.83;100.00
5283;BME280;15376;48.540;9.268;2023-07-24T11:42:43;96559.97;;;20.95;100.00
5283;BME280;15376;48.540;9.268;2023-07-24T11:45:09;96573.66;;;22.24;100.00
5283;BME280;15376;48.540;9.268;2023-07-24T11:48:01;96578.88;;;24.56;100.00
5283;BME280;15376;48.540;9.268;2023-07-24T11:50:27;96584.88;;;25.23;100.00
5283;BME280;15376;48.540;9.268;2023-07-24T11:52:52;96602.25;;;24.89;93.78
5283;BME280;15376;48.540;9.268;2023-07-24T11:55:30;96607.16;;;24.12;97.08
5283;BME280;15376;48.540;9.268;2023-07-24T11:57:57;96587.13;;;24.32;97.68
5283;BME280;15376;48.540;9.268;2023-07-24T12:00:23;96582.72;;;24.12;98.06
5283;BME280;15376;48.540;9.268;2023-07-24T12:02:48;96555.31;;;24.14;97.95
5283;BME280;15376;48.540;9.268;2023-07-24T12:05:14;96544.03;;;24.63;97.29
5283;BME280;15376;48.540;9.268;2023-07-24T12:07:42;96597.63;;;24.90;90.93
5283;BME280;15376;48.540;9.268;2023-07-24T12:10:09;96583.25;;;25.22;89.66
5283;BME280;15376;48.540;9.268;2023-07-24T12:12:43;96609.25;;;25.28;86.45
5283;BME280;15376;48.540;9.268;2023-07-24T12:15:10;96611.75;;;25.71;85.10
5283;BME280;15376;48.540;9.268;2023-07-24T12:17:36;96592.72;;;25.71;89.13
5283;BME280;15376;48.540;9.268;2023-07-24T12:20:02;96620.31;;;26.05;81.86
5283;BME280;15376;48.540;9.268;2023-07-24T12:22:29;96617.97;;;26.40;78.70
5283;BME280;15376;48.540;9.268;2023-07-24T12:24:55;96622.44;;;26.72;78.01
5283;BME280;15376;48.540;9.268;2023-07-24T12:27:20;96624.38;;;26.35;80.98
5283;BME280;15376;48.540;9.268;2023-07-24T12:29:46;96608.13;;;26.16;81.89
5283;BME280;15376;48.540;9.268;2023-07-24T12:32:11;96609.31;;;26.10;81.68
5283;BME280;15376;48.540;9.268;2023-07-24T12:34:37;96617.00;;;25.95;80.59
5283;BME280;15376;48.540;9.268;2023-07-24T12:37:02;96592.84;;;25.93;81.95
5283;BME280;15376;48.540;9.268;2023-07-24T12:39:27;96595.59;;;25.60;78.68
5283;BME280;15376;48.540;9.268;2023-07-24T12:41:53;96616.38;;;25.56;76.17
5283;BME280;15376;48.540;9.268;2023-07-24T12:44:18;96585.41;;;25.39;76.34
5283;BME280;15376;48.540;9.268;2023-07-24T12:46:43;96585.34;;;25.57;77.41
5283;BME280;15376;48.540;9.268;2023-07-24T12:49:09;96585.38;;;25.85;77.55
5283;BME280;15376;48.540;9.268;2023-07-24T12:51:34;96594.50;;;26.16;75.47
5283;BME280;15376;48.540;9.268;2023-07-24T12:54:00;96585.53;;;26.16;72.32
5283;BME280;15376;48.540;9.268;2023-07-24T12:56:25;96553.91;;;26.06;72.41
5283;BME280;15376;48.540;9.268;2023-07-24T12:58:51;96576.38;;;26.62;71.91
5283;BME280;15376;48.540;9.268;2023-07-24T13:01:16;96544.81;;;27.36;70.71
5283;BME280;15376;48.540;9.268;2023-07-24T13:03:41;96556.25;;;28.35;62.70